Texas General Land Office
 Texas General Land Office
 George P. Bush, Commissioner

 Oil Spill Prevention
 & Response

Texas Automated Buoy System
Real Time Ocean Observations
Supporting Oil Spill Prevention and
Response since 1995
Geochemical and Environmental Research Group

NOAA - NDBC Buoy 42035 -- Texas Automated Buoy System

NBDC Buoy 42035
Galveston
Conditions at 01/20/2019 18:30 UTC (01/20/2019 12:30 CST)
29° 14.7830'N   94° 24.5000'W
22NM East of Galveston, TX
Anemometer height: 5m
Water Depth: 52 feet (16 meters)
Wind: 6.0 m/s (11.7 kts)
          From 350°T (N)
Wind Gust: 8.00 m/s (15.6 kts) Pressure: 1029.1 mb (30.39 inHg)
Air Temp: 4°C (40 °F) Dewpoint: 2°C (35°F) Relative Humidity: 82%
Sea Surf Temp: 14 °C (58 °F) Wave Height: 0.6m (2.0 ft) Wave Period: 4
  


IMPORTANT: Notice to Mariners


   Date      Time    Speed     Dir   Gust    AtmPr   AirT   DewPt   WaterT  RelH  WvHt  WvPer
          |  (UTC) | (m/s) |  (°T) | (m/s) |  (mb) |  (°C) |  (°C) |  (°C) | (%) | (m) | (s) |
==========+========+=======+=======+=======+=======+=======+=======+=======+=====+=====+=====+
01/20/2019 00:00:00    14.0     320    19.0 1019.60    10.8     5.3    15.4    68 -99.0  -99
01/20/2019 00:10:00    14.0     310    17.0 1019.90    10.7     5.2    15.4    68 -99.0  -99
01/20/2019 00:20:00    14.0     320    18.0 1020.30    10.6     5.1    15.4    68 -99.0  -99
01/20/2019 00:30:00    14.0     320    17.0 1020.40    10.5     5.0    15.4    68 -99.0  -99
01/20/2019 00:40:00    14.0     330    19.0 1020.70    10.3     4.8    15.4    68   1.6  -99
01/20/2019 00:50:00    15.0     330    18.0 1020.80    10.2     4.6    15.4    68   1.6    5
01/20/2019 01:00:00    14.0     330    17.0 1021.10    10.1     4.8    15.4    69 -99.0  -99
01/20/2019 01:10:00    14.0     330    18.0 1021.20    10.1     4.9   -99.0    70 -99.0  -99
01/20/2019 01:20:00    14.0     320    18.0 1021.50    10.0     4.8    15.3    70 -99.0  -99
01/20/2019 01:30:00    15.0     330    19.0 1021.60     9.9     4.4    15.2    68 -99.0  -99
01/20/2019 01:40:00    15.0     330    20.0 1022.00     9.7     4.1    15.1    68 -99.0  -99
01/20/2019 01:50:00    14.0     320    20.0 1022.10     9.6     4.0    15.1    68   1.7    5
01/20/2019 02:00:00    15.0     320    19.0 1022.10     9.5     4.1    15.1    69 -99.0  -99
01/20/2019 02:10:00    14.0     320    18.0 1022.30     9.5     4.1    15.2    69 -99.0  -99
01/20/2019 02:20:00    14.0     320    18.0 1022.50     9.4     3.9    15.2    68 -99.0  -99
01/20/2019 02:30:00    13.0     320    17.0 1022.60     9.4     4.0    15.2    68 -99.0  -99
01/20/2019 02:40:00    14.0     320    16.0 1022.40     9.3     4.0    15.2    69   1.8  -99
01/20/2019 02:50:00    14.0     320    18.0 1022.30     9.2     4.0   -99.0    69   1.8    5
01/20/2019 03:00:00    15.0     320    19.0 1022.80     9.1     4.0    15.1    70 -99.0  -99
01/20/2019 03:10:00    14.0     320    18.0 1023.10     9.1     4.1    15.1    70 -99.0  -99
01/20/2019 03:20:00    14.0     320    17.0 1023.10     9.1     4.3    15.1    71 -99.0  -99
01/20/2019 03:30:00    13.0     320    16.0 1023.20     8.9     4.2    15.1    72 -99.0  -99
01/20/2019 03:40:00    14.0     320    18.0 1023.30     8.7     4.1    15.1    72   1.6  -99
01/20/2019 03:50:00    15.0     320    18.0 1023.50     8.5     3.9    15.1    72   1.6    5
01/20/2019 04:00:00    15.0     320    18.0 1023.50     8.3     3.8    15.1    73 -99.0  -99
01/20/2019 04:10:00    14.0     330    18.0 1023.70     8.3     4.2    15.0    75 -99.0  -99
01/20/2019 04:20:00    14.0     330    19.0 1023.60     8.3     4.4    15.0    76 -99.0  -99
01/20/2019 04:30:00    15.0     330    18.0 1023.70     8.1     4.0    15.0    75 -99.0  -99
01/20/2019 04:40:00    15.0     330    19.0 1023.90     7.8     3.6    15.1    74   1.8  -99
01/20/2019 04:50:00    15.0     330    19.0 1024.00     7.7     3.5    15.1    74   1.8    5
01/20/2019 05:00:00    14.0     330    17.0 1024.40     7.9     4.2   -99.0    77 -99.0  -99
01/20/2019 05:10:00    14.0     320    17.0 1024.60     7.7     4.0    15.1    77 -99.0  -99
01/20/2019 05:20:00    14.0     330    16.0 1024.60     7.4     3.5    15.2    76 -99.0  -99
01/20/2019 05:30:00    13.0     330    16.0 1024.60     7.5     3.9    15.2    77 -99.0  -99
01/20/2019 05:40:00    13.0     330    17.0 1024.40     7.1     3.4    15.2    77   1.7  -99
01/20/2019 05:50:00    12.0     330    16.0 1024.40     7.0     3.4    15.2    77   1.7    5
01/20/2019 06:00:00    12.0     330    16.0 1024.40     6.9     3.3   -99.0    77 -99.0  -99
01/20/2019 06:10:00    12.0     330    15.0 1024.40     6.9     3.4    15.2    78 -99.0  -99
01/20/2019 06:20:00    12.0     330    15.0 1024.30     6.7     3.2    15.2    78 -99.0  -99
01/20/2019 06:30:00    11.0     340    13.0 1024.30     6.7     3.4    15.2    79 -99.0  -99
01/20/2019 06:40:00    11.0     330    14.0 1024.60     6.5     2.8    15.2    77 -99.0  -99
01/20/2019 06:50:00    11.0     340    14.0 1024.80     6.4     2.8   -99.0    77   1.3    5
01/20/2019 07:00:00    11.0     330    14.0 1025.20     6.4     3.1    15.2    79 -99.0  -99
01/20/2019 07:10:00    11.0     330    14.0 1025.50     6.5     3.2    15.2    79 -99.0  -99
01/20/2019 07:20:00    11.0     330    15.0 1025.40     6.4     3.3    15.2    80 -99.0  -99
01/20/2019 07:30:00    11.0     330    14.0 1025.60     6.3     3.2    15.2    80 -99.0  -99
01/20/2019 07:40:00    11.0     330    14.0 1025.70     6.2     3.3    15.2    81   1.3  -99
01/20/2019 07:50:00    11.0     330    14.0 1026.00     6.0     3.0    15.2    81   1.3    4
01/20/2019 08:00:00    12.0     330    14.0 1025.80     5.7     2.9    15.2    82 -99.0  -99
01/20/2019 08:10:00    11.0     330    14.0 1026.20     5.6     2.9    15.2    82 -99.0  -99
01/20/2019 08:20:00    12.0     330    15.0 1026.10     5.4     2.3    15.1    80 -99.0  -99
01/20/2019 08:30:00    11.0     330    15.0 1026.00     5.6     2.9    15.1    82 -99.0  -99
01/20/2019 08:40:00    11.0     330    15.0 1026.10     5.4     2.7    15.1    82 -99.0  -99
01/20/2019 08:50:00    11.0     330    14.0 1025.90     5.4     2.8    15.1    83   1.2    4
01/20/2019 09:00:00    12.0     330    15.0 1025.90     5.0     2.3    15.1    82 -99.0  -99
01/20/2019 09:10:00    12.0     340    15.0 1026.00     5.3     2.8    15.1    83 -99.0  -99
01/20/2019 09:20:00    11.0     330    15.0 1026.20     5.1     2.6    15.1    83 -99.0  -99
01/20/2019 09:30:00    11.0     330    14.0 1026.20     5.0     2.4    15.1    83 -99.0  -99
01/20/2019 09:40:00    12.0     340    14.0 1026.40     5.0     2.3    15.0    82   1.3  -99
01/20/2019 09:50:00    12.0     340    15.0 1026.60     4.9     2.2    14.9    82   1.3    4
01/20/2019 10:00:00    12.0     340    15.0 1026.80     4.9     2.3    14.9    83 -99.0  -99
01/20/2019 10:10:00    12.0     340    16.0 1026.50     5.1     2.8    14.8    85 -99.0  -99
01/20/2019 10:20:00    12.0     340    16.0 1026.30     4.7     2.2    14.8    83 -99.0  -99
01/20/2019 10:30:00    12.0     350    16.0 1026.70     4.7     2.3    14.8    84 -99.0  -99
01/20/2019 10:40:00    12.0     350    15.0 1026.40     4.7     2.4    14.7    85   1.3  -99
01/20/2019 10:50:00    12.0     350    14.0 1026.60     4.4     1.9    14.6    83   1.3    4
01/20/2019 11:00:00    11.0     350    14.0 1026.70     4.5     2.2    14.7    85 -99.0  -99
01/20/2019 11:10:00    12.0     340    15.0 1026.70     4.2     1.9    14.7    84 -99.0  -99
01/20/2019 11:20:00    12.0     340    15.0 1026.80     4.2     2.0    14.7    85 -99.0  -99
01/20/2019 11:30:00    12.0     350    14.0 1026.80     4.3     2.3    14.7    86 -99.0  -99
01/20/2019 11:40:00    12.0     350    15.0 1026.80     4.1     2.0    14.7    86 -99.0  -99
01/20/2019 11:50:00    12.0     340    15.0 1026.80     4.0     1.9    14.7    86   1.4    5
01/20/2019 12:00:00    12.0     350    16.0 1026.90     3.9     2.0   -99.0    87 -99.0  -99
01/20/2019 12:10:00    12.0     350    15.0 1026.90     3.7     1.8    14.6    87 -99.0  -99
01/20/2019 12:20:00    11.0     350    15.0 1027.10     3.5     1.6    14.6    87 -99.0  -99
01/20/2019 12:30:00    11.0     350    14.0 1027.10     3.5     1.7    14.6    87 -99.0  -99
01/20/2019 12:40:00    11.0     350    13.0 1027.40     3.4     1.6    14.6    87   1.2  -99
01/20/2019 12:50:00    11.0     350    14.0 1027.80     3.3     1.4    14.6    87   1.2    5
01/20/2019 13:00:00    11.0     350    13.0 1027.80     3.4     1.7   -99.0    88 -99.0  -99
01/20/2019 13:10:00    11.0     350    14.0 1027.90     3.2     1.5   -99.0    88 -99.0  -99
01/20/2019 13:20:00    10.0     350    13.0 1028.20     3.2     1.6    14.6    89 -99.0  -99
01/20/2019 13:30:00    11.0     350    14.0 1028.60   -99.0   -99.0    14.6   100 -99.0  -99
01/20/2019 13:40:00    10.0     350    13.0 1028.60     3.2     1.7    14.6    89   1.2  -99
01/20/2019 13:50:00    10.0     350    13.0 1028.90     3.0     1.4    14.6    89   1.2    5
01/20/2019 14:00:00    10.0     350    13.0 1028.80     3.1     1.6    14.5    89 -99.0  -99
01/20/2019 14:10:00     9.0     350    12.0 1029.00     2.9     1.3    14.5    89 -99.0  -99
01/20/2019 14:20:00     9.0     350    12.0 1029.10     2.9     1.3    14.5    89 -99.0  -99
01/20/2019 14:30:00     9.0     350    12.0 1029.10     2.8     1.2    14.5    89 -99.0  -99
01/20/2019 14:40:00     8.0     360    11.0 1029.10     2.7     1.0    14.5    88   1.0  -99
01/20/2019 14:50:00     8.0     360    10.0 1029.10     2.8     1.2    14.5    89   1.0    4
01/20/2019 15:00:00     8.0     360    10.0 1029.00     2.8     1.3    14.4    89 -99.0  -99
01/20/2019 15:10:00     8.0     360    11.0 1029.20     2.6     0.8    14.4    87 -99.0  -99
01/20/2019 15:20:00     8.0     350    10.0 1029.60     2.7     1.1    14.4    89 -99.0  -99
01/20/2019 15:30:00     8.0     350    11.0 1029.50     3.0     1.4   -99.0    89 -99.0  -99
01/20/2019 15:40:00     7.0     350    10.0 1029.80     3.0     1.4    14.5    89   0.9  -99
01/20/2019 15:50:00     7.0     360    10.0 1030.00     2.9     1.1    14.5    87   0.9    4
01/20/2019 16:00:00     7.0     360     9.0 1029.90     3.0     1.1    14.4    87 -99.0  -99
01/20/2019 16:10:00     6.0     350     9.0 1030.10     3.2     1.3    14.4    87 -99.0  -99
01/20/2019 16:20:00     7.0     360     9.0 1030.20     3.2     1.2    14.5    86 -99.0  -99
01/20/2019 16:30:00     7.0     350     9.0 1029.90     3.2     1.2    14.5    86 -99.0  -99
01/20/2019 16:40:00     5.0     350     8.0 1029.60     3.1     0.9    14.5    85   0.8  -99
01/20/2019 16:50:00     5.0     360     7.0 1029.90     3.3     1.0    14.5    84   0.8    4
01/20/2019 17:00:00     5.0     360     7.0 1029.70     3.5     1.1    14.5    84 -99.0  -99
01/20/2019 17:10:00     5.0     360     7.0 1029.70     3.6     1.3    14.5    84 -99.0  -99
01/20/2019 17:20:00     5.0     360     7.0 1029.80     3.6     1.2    14.5    84 -99.0  -99
01/20/2019 17:30:00     5.0     350     7.0 1029.80     3.8     1.5    14.5    84 -99.0  -99
01/20/2019 17:40:00     5.0     340     8.0 1029.70     3.9     1.3    14.5    83   0.6  -99
01/20/2019 17:50:00     5.0     350     7.0 1029.80     3.8     1.0    14.5    81   0.6    4
01/20/2019 18:00:00     5.0     350     7.0 1029.60     4.0     1.2    14.5    81 -99.0  -99
01/20/2019 18:10:00     6.0     340     8.0 1029.50     4.2     1.3    14.5    81 -99.0  -99
01/20/2019 18:20:00     6.0     340     8.0 1029.10     4.4     1.7    14.5    82 -99.0  -99
01/20/2019 18:30:00     6.0     350     8.0 1029.10     4.5     1.7    14.5    82 -99.0  -99